Time;durP1;ratioP1;P1;durP2;ratioP2;P2;SDS_P1;SDS_P2;PMS_P1;PMS_P2;Temp;Humidity;BMP_temperature;BMP_pressure;BME280_temperature;BME280_humidity;BME280_pressure;Samples;Min_cycle;Max_cycle;Signal;HPM_P1;HPM_P2
2021/05/18 00:00:26;;;;;;;0.10;0.10;;;11.80;98.50;;;;;;4987377;28;20727;-73
2021/05/18 00:02:53;;;;;;;0.10;0.10;;;11.80;98.50;;;;;;4985966;28;20276;-73
2021/05/18 00:05:22;;;;;;;0.10;0.10;;;11.80;98.50;;;;;;4996620;28;20235;-73
2021/05/18 00:07:59;;;;;;;0.10;0.10;;;11.80;98.50;;;;;;5025804;28;20184;-73
2021/05/18 00:13:13;;;;;;;0.10;0.10;;;11.80;98.50;;;;;;5022617;28;20206;-73
2021/05/18 00:15:39;;;;;;;0.17;0.17;;;11.80;98.50;;;;;;5025474;28;20250;-73
2021/05/18 00:18:06;;;;;;;0.10;0.10;;;11.80;98.50;;;;;;5019605;28;20206;-73
2021/05/18 00:20:34;;;;;;;1.38;0.10;;;11.80;98.50;;;;;;5014516;28;20216;-74
2021/05/18 00:23:02;;;;;;;0.25;0.20;;;11.70;98.50;;;;;;5021707;28;20267;-74
2021/05/18 00:25:28;;;;;;;0.13;0.13;;;11.70;98.50;;;;;;5025353;28;20643;-73
2021/05/18 00:27:53;;;;;;;0.55;0.10;;;11.70;98.50;;;;;;5027310;28;20184;-73
2021/05/18 00:30:20;;;;;;;0.10;0.10;;;11.80;98.50;;;;;;5019231;28;20691;-73
2021/05/18 00:32:45;;;;;;;1.23;0.10;;;11.80;98.50;;;;;;5027462;28;20258;-73
2021/05/18 00:35:12;;;;;;;0.20;0.20;;;11.80;98.50;;;;;;5024937;28;20192;-73
2021/05/18 00:37:38;;;;;;;0.20;0.20;;;11.80;98.50;;;;;;5021247;28;20237;-73
2021/05/18 00:40:07;;;;;;;0.10;0.10;;;11.80;98.50;;;;;;5027306;28;20184;-73
2021/05/18 00:42:44;;;;;;;0.85;0.25;;;11.80;98.50;;;;;;5022881;28;20192;-73
2021/05/18 00:45:11;;;;;;;0.10;0.10;;;11.90;98.50;;;;;;5019948;28;20207;-73
2021/05/18 00:47:36;;;;;;;0.30;0.30;;;12.00;98.50;;;;;;5027055;28;20180;-73
2021/05/18 00:50:03;;;;;;;0.20;0.20;;;12.00;98.50;;;;;;5027232;28;20195;-73
2021/05/18 00:52:30;;;;;;;0.57;0.30;;;12.10;98.50;;;;;;5025365;28;20673;-73
2021/05/18 00:55:02;;;;;;;0.25;0.20;;;12.10;98.50;;;;;;5027618;28;20208;-73
2021/05/18 01:00:26;;;;;;;0.68;0.30;;;12.10;98.50;;;;;;5003353;28;20338;-73
2021/05/18 01:02:52;;;;;;;0.20;0.20;;;12.10;98.50;;;;;;5006861;28;20196;-74
2021/05/18 01:05:22;;;;;;;1.20;0.20;;;12.10;98.50;;;;;;5001911;28;20749;-73
2021/05/18 01:07:49;;;;;;;1.27;0.10;;;12.00;98.50;;;;;;4997865;28;20971;-73
2021/05/18 01:10:16;;;;;;;0.30;0.30;;;12.00;98.50;;;;;;5005995;28;20192;-73
2021/05/18 01:12:43;;;;;;;0.17;0.17;;;12.00;98.50;;;;;;5008279;28;20195;-74
2021/05/18 01:15:11;;;;;;;0.15;0.15;;;11.90;98.50;;;;;;5012484;28;20192;-73
2021/05/18 01:17:37;;;;;;;0.20;0.20;;;11.90;98.50;;;;;;5013647;28;20247;-73
2021/05/18 01:20:11;;;;;;;0.20;0.20;;;11.90;98.50;;;;;;5008059;28;20194;-73
2021/05/18 01:22:37;;;;;;;0.20;0.20;;;11.90;98.50;;;;;;5008229;28;21012;-73
2021/05/18 01:25:05;;;;;;;0.40;0.40;;;12.00;98.50;;;;;;5019909;28;20300;-73
2021/05/18 01:27:30;;;;;;;0.30;0.30;;;12.00;98.50;;;;;;5008045;28;20300;-73
2021/05/18 01:29:56;;;;;;;0.20;0.20;;;12.00;98.50;;;;;;5007884;28;20587;-73
2021/05/18 01:32:25;;;;;;;0.20;0.20;;;12.00;98.50;;;;;;5013114;28;20358;-73
2021/05/18 01:34:50;;;;;;;0.25;0.25;;;12.00;98.50;;;;;;5008087;28;20260;-73
2021/05/18 01:37:16;;;;;;;0.30;0.30;;;;;;;;;;5028417;28;20186;-73
2021/05/18 01:42:46;;;;;;;0.20;0.20;;;11.90;98.50;;;;;;5029229;28;20191;-72
2021/05/18 01:45:17;;;;;;;0.30;0.30;;;11.90;98.50;;;;;;5021089;28;20216;-72
2021/05/18 01:47:53;;;;;;;0.73;0.20;;;11.80;98.50;;;;;;5024313;28;20271;-73
2021/05/18 01:50:22;;;;;;;0.20;0.20;;;11.80;98.50;;;;;;5016539;28;20227;-73
2021/05/18 01:52:49;;;;;;;0.30;0.30;;;11.80;98.50;;;;;;5018779;28;20661;-73
2021/05/18 01:55:25;;;;;;;0.63;0.57;;;11.80;98.50;;;;;;5028856;28;20189;-73
2021/05/18 01:57:51;;;;;;;0.40;0.40;;;11.80;98.50;;;;;;5030182;28;20191;-72
2021/05/18 02:00:20;;;;;;;0.30;0.30;;;11.80;98.50;;;;;;5028713;28;20185;-73
2021/05/18 02:02:47;;;;;;;0.30;0.30;;;11.80;98.50;;;;;;5017305;28;20177;-73
2021/05/18 02:05:15;;;;;;;0.35;0.35;;;11.80;98.50;;;;;;5021671;28;20612;-74
2021/05/18 02:08:00;;;;;;;1.00;0.30;;;11.80;98.50;;;;;;5029019;28;20180;-74
2021/05/18 02:10:26;;;;;;;0.90;0.40;;;11.80;98.50;;;;;;5030032;28;20180;-73
2021/05/18 02:12:54;;;;;;;0.20;0.20;;;11.80;98.50;;;;;;5028777;28;20303;-72
2021/05/18 02:17:52;;;;;;;0.57;0.57;;;11.80;98.50;;;;;;5024698;28;20277;-74
2021/05/18 02:20:39;;;;;;;0.30;0.30;;;11.80;98.50;;;;;;5024983;28;20180;-74
2021/05/18 02:25:49;;;;;;;1.10;0.47;;;11.80;98.50;;;;;;5029167;28;20291;-73
2021/05/18 02:28:15;;;;;;;0.25;0.25;;;11.80;98.50;;;;;;5017625;28;20271;-73
2021/05/18 02:30:40;;;;;;;0.30;0.30;;;11.80;98.50;;;;;;5024699;28;20234;-73
2021/05/18 02:33:06;;;;;;;0.32;0.32;;;11.80;98.50;;;;;;5025672;28;20177;-73
2021/05/18 02:35:33;;;;;;;0.30;0.30;;;11.80;98.50;;;;;;5017806;28;20976;-74
2021/05/18 02:37:59;;;;;;;0.57;0.47;;;11.90;98.50;;;;;;5031887;28;20254;-74
2021/05/18 02:40:27;;;;;;;0.40;0.40;;;11.90;98.50;;;;;;5012692;28;20283;-74
2021/05/18 02:42:53;;;;;;;0.40;0.40;;;11.90;98.50;;;;;;5027710;28;20219;-74
2021/05/18 02:45:47;;;;;;;0.40;0.40;;;11.90;98.50;;;;;;5023259;28;20216;-74
2021/05/18 02:50:53;;;;;;;0.50;0.50;;;12.00;98.50;;;;;;5022681;28;20184;-73
2021/05/18 02:53:18;;;;;;;1.20;0.45;;;12.00;98.50;;;;;;5019479;28;20192;-73
2021/05/18 02:55:57;;;;;;;0.40;0.40;;;12.00;98.50;;;;;;5022745;28;20201;-73
2021/05/18 02:58:25;;;;;;;0.43;0.43;;;12.00;98.50;;;;;;5014779;28;20188;-73
2021/05/18 03:00:51;;;;;;;0.50;0.50;;;12.00;98.50;;;;;;5016224;28;20207;-73
2021/05/18 03:03:17;;;;;;;0.80;0.80;;;12.00;98.50;;;;;;5027805;28;20220;-73
2021/05/18 03:05:43;;;;;;;0.77;0.77;;;12.00;98.50;;;;;;5025700;28;20278;-73
2021/05/18 03:08:11;;;;;;;0.77;0.77;;;12.00;98.50;;;;;;5028107;28;20215;-73
2021/05/18 03:10:36;;;;;;;0.70;0.70;;;12.00;98.50;;;;;;5026734;28;20180;-73
2021/05/18 03:13:03;;;;;;;0.82;0.82;;;12.00;98.50;;;;;;5022343;28;20195;-74
2021/05/18 03:15:30;;;;;;;0.90;0.90;;;12.00;98.50;;;;;;5024179;28;20291;-74
2021/05/18 03:17:56;;;;;;;0.70;0.70;;;12.00;98.40;;;;;;5028043;28;20271;-73
2021/05/18 03:20:23;;;;;;;1.10;1.10;;;12.00;98.50;;;;;;5025215;28;20172;-72
2021/05/18 03:22:49;;;;;;;1.30;1.20;;;12.00;98.30;;;;;;5027348;28;20941;-73
2021/05/18 03:25:15;;;;;;;0.80;0.80;;;12.00;98.40;;;;;;5027773;28;20299;-73
2021/05/18 03:27:42;;;;;;;0.82;0.82;;;12.00;98.10;;;;;;5026591;28;20183;-73
2021/05/18 03:30:20;;;;;;;1.08;1.08;;;12.00;98.20;;;;;;5027858;28;20172;-74
2021/05/18 03:35:30;;;;;;;0.80;0.80;;;12.00;98.20;;;;;;5025460;28;20187;-74
2021/05/18 03:37:59;;;;;;;1.15;1.15;;;12.00;98.40;;;;;;5023224;28;20199;-73
2021/05/18 03:40:27;;;;;;;0.90;0.90;;;12.00;98.40;;;;;;5028190;28;20715;-73
2021/05/18 03:43:07;;;;;;;0.95;0.95;;;12.00;98.30;;;;;;5021791;28;20775;-73
2021/05/18 03:45:35;;;;;;;2.35;1.08;;;12.00;98.00;;;;;;5026008;28;20679;-73
2021/05/18 04:04:31;;;;;;;1.00;1.00;;;11.90;97.80;;;;;;4997695;28;20848;-73
2021/05/18 04:12:41;;;;;;;1.02;0.93;;;11.90;97.30;;;;;;5000236;28;20204;-73
2021/05/18 04:39:41;;;;;;;0.50;0.50;;;12.30;94.80;;;;;;5027479;28;20597;-74
2021/05/18 05:15:32;;;;;;;0.30;0.30;;;12.70;91.40;;;;;;5022251;28;20597;-72
2021/05/18 05:17:58;;;;;;;0.50;0.50;;;12.80;91.30;;;;;;5023991;28;20202;-70
2021/05/18 05:20:23;;;;;;;0.40;0.40;;;12.80;90.50;;;;;;5023375;28;20173;-69
2021/05/18 05:22:49;;;;;;;0.30;0.30;;;12.80;90.40;;;;;;5024612;28;20692;-69
2021/05/18 05:25:15;;;;;;;0.60;0.60;;;12.80;90.50;;;;;;5025367;28;20672;-71
2021/05/18 05:27:40;;;;;;;0.45;0.45;;;12.90;90.70;;;;;;5021992;28;20705;-69
2021/05/18 05:30:07;;;;;;;0.20;0.20;;;12.90;90.40;;;;;;5019435;28;20188;-71
2021/05/18 05:32:33;;;;;;;0.32;0.32;;;12.90;89.50;;;;;;5024507;28;20264;-70
2021/05/18 05:34:58;;;;;;;0.38;0.38;;;13.00;89.10;;;;;;5023796;28;20196;-72
2021/05/18 05:37:25;;;;;;;0.20;0.20;;;13.00;89.30;;;;;;5026711;28;20658;-73
2021/05/18 05:39:51;;;;;;;0.22;0.22;;;13.00;89.20;;;;;;5026049;28;20184;-71
2021/05/18 05:42:17;;;;;;;0.40;0.40;;;13.10;89.10;;;;;;5026254;28;20192;-71
2021/05/18 05:44:43;;;;;;;0.30;0.30;;;13.00;88.80;;;;;;5021648;28;20188;-69
2021/05/18 05:47:09;;;;;;;1.15;0.45;;;12.90;88.40;;;;;;5027610;28;21027;-69
2021/05/18 05:49:34;;;;;;;0.35;0.35;;;12.80;88.30;;;;;;5025675;28;20259;-71
2021/05/18 05:52:00;;;;;;;0.30;0.30;;;12.70;89.10;;;;;;5023668;28;20196;-69
2021/05/18 05:54:26;;;;;;;0.38;0.38;;;12.50;89.50;;;;;;5020158;28;20185;-70
2021/05/18 05:56:52;;;;;;;0.47;0.47;;;;;;;;;;5027689;28;20685;-70
2021/05/18 05:59:19;;;;;;;0.40;0.40;;;12.50;90.10;;;;;;5030444;28;20234;-70
2021/05/18 06:01:47;;;;;;;0.40;0.40;;;12.50;90.40;;;;;;5030335;28;20221;-70
2021/05/18 06:04:13;;;;;;;0.30;0.30;;;12.50;88.60;;;;;;5030102;28;20573;-70
2021/05/18 06:06:39;;;;;;;0.68;0.40;;;12.50;88.60;;;;;;5030243;28;20196;-70
2021/05/18 06:09:05;;;;;;;5.38;0.30;;;12.60;88.70;;;;;;5030319;28;20206;-70
2021/05/18 06:11:57;;;;;;;0.20;0.20;;;12.60;88.30;;;;;;5029375;28;20200;-71
2021/05/18 06:14:48;;;;;;;0.10;0.10;;;12.80;88.00;;;;;;5028934;28;20191;-70
2021/05/18 06:47:30;;;;;;;0.70;0.50;;;13.20;86.00;;;;;;4995219;28;20847;-70
2021/05/18 06:50:08;;;;;;;0.30;0.30;;;13.30;85.60;;;;;;4978295;28;20201;-71
2021/05/18 06:52:34;;;;;;;0.30;0.30;;;13.40;85.60;;;;;;4982447;28;20178;-70
2021/05/18 06:54:59;;;;;;;0.30;0.30;;;13.40;85.00;;;;;;4985295;28;20194;-69
2021/05/18 06:57:25;;;;;;;0.40;0.20;;;13.50;85.00;;;;;;5008520;28;20267;-69
2021/05/18 07:00:08;;;;;;;0.30;0.30;;;13.50;83.50;;;;;;5017081;28;20181;-69
2021/05/18 07:02:35;;;;;;;0.30;0.30;;;13.60;82.90;;;;;;5014943;28;20183;-69
2021/05/18 07:05:02;;;;;;;1.75;0.20;;;13.60;83.00;;;;;;5014500;28;20768;-70
2021/05/18 07:07:33;;;;;;;0.30;0.30;;;13.60;82.30;;;;;;5029461;28;20581;-70
2021/05/18 07:09:58;;;;;;;0.20;0.20;;;13.70;82.00;;;;;;5028401;28;20172;-69
2021/05/18 07:12:42;;;;;;;0.17;0.17;;;13.80;82.00;;;;;;5029169;28;20199;-69
2021/05/18 07:15:08;;;;;;;0.17;0.17;;;13.80;80.00;;;;;;5026370;28;20695;-70
2021/05/18 07:17:34;;;;;;;0.20;0.20;;;13.80;80.20;;;;;;5029460;28;20652;-70
2021/05/18 07:20:00;;;;;;;0.40;0.40;;;13.80;78.90;;;;;;5029212;28;20180;-69
2021/05/18 07:22:25;;;;;;;0.20;0.20;;;13.90;78.80;;;;;;5029199;28;20744;-71
2021/05/18 07:24:51;;;;;;;0.10;0.10;;;13.90;78.80;;;;;;5029113;28;20184;-69
2021/05/18 07:27:17;;;;;;;0.20;0.20;;;14.00;78.00;;;;;;5028893;28;20639;-71
2021/05/18 07:29:43;;;;;;;2.40;0.20;;;14.00;78.50;;;;;;5022556;28;20292;-70
2021/05/18 07:32:08;;;;;;;0.10;0.10;;;14.00;77.30;;;;;;5028555;28;20177;-70
2021/05/18 07:34:34;;;;;;;0.20;0.20;;;14.10;78.30;;;;;;5028692;28;20196;-69
2021/05/18 07:37:00;;;;;;;0.10;0.10;;;14.20;77.90;;;;;;5028501;28;20172;-70
2021/05/18 07:39:25;;;;;;;0.20;0.20;;;14.30;77.30;;;;;;5028620;28;20711;-71
2021/05/18 07:41:51;;;;;;;0.10;0.10;;;14.30;78.00;;;;;;5028595;28;20624;-70
2021/05/18 07:44:17;;;;;;;0.40;0.20;;;14.50;78.00;;;;;;5028570;28;20186;-70
2021/05/18 07:46:44;;;;;;;0.30;0.30;;;14.70;78.40;;;;;;5028785;28;20598;-70
2021/05/18 07:49:17;;;;;;;0.10;0.10;;;14.70;78.40;;;;;;5028753;28;20599;-71
2021/05/18 08:00:00;;;;;;;0.40;0.30;;;15.30;77.20;;;;;;5025053;28;20186;-70
2021/05/18 08:05:17;;;;;;;0.28;0.28;;;15.30;76.50;;;;;;5015909;28;20184;-71
2021/05/18 08:05:18;;;;;;;0.20;0.20;;;15.30;76.20;;;;;;5029026;28;20214;-69
2021/05/18 08:07:45;;;;;;;0.20;0.20;;;15.40;77.50;;;;;;5027577;28;20172;-70
2021/05/18 08:12:38;;;;;;;0.30;0.30;;;15.50;76.60;;;;;;5028085;28;20270;-72
2021/05/18 08:18:07;;;;;;;0.10;0.10;;;15.50;75.20;;;;;;5027080;28;20188;-70
2021/05/18 08:21:16;;;;;;;0.15;0.15;;;15.50;75.40;;;;;;5025722;28;20221;-70
2021/05/18 10:14:40;;;;;;;0.10;0.10;;;17.90;70.70;;;;;;5014410;28;20189;-69
2021/05/18 10:15:52;;;;;;;0.28;0.17;;;18.50;66.60;;;;;;4975894;28;20247;-70
2021/05/18 10:25:32;;;;;;;0.10;0.10;;;18.60;66.20;;;;;;4988494;28;20182;-70
2021/05/18 10:38:43;;;;;;;0.20;0.20;;;20.20;63.50;;;;;;5026566;28;20180;-70
2021/05/18 10:41:12;;;;;;;0.10;0.10;;;20.60;63.40;;;;;;5015265;28;20184;-69
2021/05/18 10:43:39;;;;;;;0.20;0.20;;;21.00;62.50;;;;;;5020748;28;20183;-69
2021/05/18 10:46:14;;;;;;;0.08;0.08;;;21.60;62.30;;;;;;5027483;28;20216;-70
2021/05/18 10:48:42;;;;;;;0.10;0.10;;;22.30;61.10;;;;;;5027473;28;20734;-70
2021/05/18 10:51:25;;;;;;;0.10;0.10;;;22.50;60.20;;;;;;5028415;28;20189;-70
2021/05/18 10:54:23;;;;;;;0.10;0.10;;;22.30;58.20;;;;;;5027465;28;20628;-70
2021/05/18 10:59:41;;;;;;;1.30;0.10;;;23.10;58.50;;;;;;5030429;28;20196;-70
2021/05/18 11:02:11;;;;;;;0.10;0.10;;;23.90;56.70;;;;;;5027874;28;20187;-70
2021/05/18 11:04:54;;;;;;;0.10;0.10;;;24.30;56.20;;;;;;5027844;28;20684;-70
2021/05/18 11:07:31;;;;;;;0.10;0.10;;;24.60;56.10;;;;;;5013841;28;20209;-70
2021/05/18 11:09:57;;;;;;;0.10;0.10;;;25.10;55.40;;;;;;5021623;28;20190;-70
2021/05/18 11:12:25;;;;;;;0.10;0.10;;;25.50;54.90;;;;;;5027980;28;20659;-70
2021/05/18 11:15:06;;;;;;;0.20;0.20;;;25.90;55.30;;;;;;5027483;28;20270;-69
2021/05/18 11:17:38;;;;;;;0.10;0.10;;;26.20;54.40;;;;;;5028062;28;20245;-71
2021/05/18 11:20:34;;;;;;;0.55;0.10;;;26.40;52.40;;;;;;5027537;28;20184;-70
2021/05/18 11:25:54;;;;;;;0.10;0.10;;;26.00;52.80;;;;;;5017951;28;20220;-69
2021/05/18 11:28:27;;;;;;;0.00;0.00;;;25.60;52.10;;;;;;5027644;28;20783;-70
2021/05/18 11:30:58;;;;;;;0.15;0.10;;;24.80;51.60;;;;;;5020717;28;20189;-70
2021/05/18 11:33:35;;;;;;;0.30;0.10;;;24.00;53.20;;;;;;5025952;28;20259;-70
2021/05/18 11:36:09;;;;;;;0.75;0.10;;;23.30;55.30;;;;;;5021454;28;20678;-70
2021/05/18 11:38:39;;;;;;;0.10;0.10;;;23.10;56.00;;;;;;5018398;28;20218;-69
2021/05/18 11:41:05;;;;;;;0.57;0.15;;;23.20;56.80;;;;;;5016422;28;20195;-70
2021/05/18 11:43:39;;;;;;;0.10;0.10;;;23.60;55.20;;;;;;5023927;28;20224;-70
2021/05/18 11:46:10;;;;;;;0.10;0.10;;;23.90;54.30;;;;;;5027148;28;20230;-70
2021/05/18 11:48:41;;;;;;;0.85;0.20;;;23.90;54.40;;;;;;5018255;28;20491;-70
2021/05/18 11:51:15;;;;;;;0.08;0.08;;;24.10;55.00;;;;;;5023580;28;20541;-70
2021/05/18 11:53:52;;;;;;;0.10;0.10;;;24.60;54.10;;;;;;5023796;28;20618;-70
2021/05/18 11:56:23;;;;;;;0.75;0.10;;;25.20;53.70;;;;;;5016117;28;20180;-70
2021/05/18 11:59:08;;;;;;;0.10;0.10;;;25.50;53.00;;;;;;5023766;28;20419;-70
2021/05/18 12:01:37;;;;;;;1.95;0.10;;;25.40;51.30;;;;;;5025542;28;20263;-70
2021/05/18 12:04:09;;;;;;;0.40;0.08;;;25.10;51.70;;;;;;5025571;28;20199;-68
2021/05/18 12:06:39;;;;;;;0.10;0.10;;;24.30;51.50;;;;;;5017063;28;20294;-70
2021/05/18 12:09:06;;;;;;;0.40;0.40;;;23.90;52.90;;;;;;5013008;28;20262;-69
2021/05/18 12:11:33;;;;;;;0.10;0.10;;;23.50;53.80;;;;;;5025540;28;20223;-68
2021/05/18 12:13:59;;;;;;;0.30;0.10;;;23.20;52.80;;;;;;5021691;28;20187;-69
2021/05/18 12:16:26;;;;;;;0.10;0.10;;;23.40;53.70;;;;;;5026413;28;20243;-71
2021/05/18 12:18:54;;;;;;;0.10;0.10;;;23.70;52.60;;;;;;5009104;28;20185;-70
2021/05/18 12:21:30;;;;;;;0.10;0.10;;;24.30;52.60;;;;;;5017990;28;20194;-69
2021/05/18 12:24:08;;;;;;;0.10;0.10;;;24.90;51.70;;;;;;5014766;28;20306;-69
2021/05/18 12:27:05;;;;;;;0.80;0.15;;;25.70;50.70;;;;;;5010994;28;20219;-69
2021/05/18 12:29:43;;;;;;;0.40;0.10;;;25.90;48.30;;;;;;5017284;28;20189;-69
2021/05/18 12:32:21;;;;;;;1.27;0.08;;;25.80;48.50;;;;;;5016311;28;20254;-69
2021/05/18 12:34:52;;;;;;;0.00;0.00;;;25.20;48.30;;;;;;5019421;28;20554;-70
2021/05/18 12:37:32;;;;;;;0.30;0.28;;;24.40;50.90;;;;;;5034946;28;20199;-69
2021/05/18 12:39:58;;;;;;;0.10;0.10;;;23.90;51.00;;;;;;5024605;28;20190;-69
2021/05/18 12:42:28;;;;;;;0.00;0.00;;;23.50;51.80;;;;;;5025994;28;20254;-70
2021/05/18 12:45:00;;;;;;;0.00;0.00;;;23.50;51.60;;;;;;5023757;28;20184;-69
2021/05/18 12:47:37;;;;;;;0.45;0.20;;;23.90;52.40;;;;;;5016632;28;20208;-68
2021/05/18 12:50:11;;;;;;;1.23;0.10;;;24.40;51.20;;;;;;5023813;28;20699;-69
2021/05/18 12:52:49;;;;;;;0.28;0.10;;;25.00;50.40;;;;;;5023350;28;20184;-69
2021/05/18 12:55:24;;;;;;;0.00;0.00;;;25.60;48.30;;;;;;5025537;28;20610;-69
2021/05/18 12:57:50;;;;;;;0.10;0.10;;;25.30;48.50;;;;;;5015977;28;20187;-69
2021/05/18 13:00:20;;;;;;;0.20;0.20;;;24.70;48.80;;;;;;5025136;28;20180;-67
2021/05/18 13:02:47;;;;;;;0.13;0.10;;;24.30;51.10;;;;;;5013188;28;20191;-69
2021/05/18 13:05:17;;;;;;;1.05;0.10;;;24.40;50.50;;;;;;5023795;28;20180;-68
2021/05/18 13:08:04;;;;;;;1.25;0.22;;;24.50;51.50;;;;;;5020030;28;20176;-69
2021/05/18 13:10:44;;;;;;;0.10;0.10;;;24.90;53.00;;;;;;5029290;28;20673;-69
2021/05/18 13:13:10;;;;;;;0.13;0.10;;;25.70;51.00;;;;;;5030387;28;20715;-69
2021/05/18 13:15:36;;;;;;;0.10;0.10;;;26.70;50.50;;;;;;5028256;28;20184;-70
2021/05/18 13:18:04;;;;;;;0.43;0.00;;;27.50;50.20;;;;;;5028565;28;20187;-70
2021/05/18 13:20:39;;;;;;;0.10;0.10;;;28.30;48.10;;;;;;5028459;28;20195;-68
2021/05/18 13:23:06;;;;;;;0.10;0.10;;;28.80;48.30;;;;;;5026464;28;20191;-69
2021/05/18 13:28:22;;;;;;;1.23;0.10;;;29.50;48.70;;;;;;5021653;28;20250;-68
2021/05/18 13:30:48;;;;;;;0.20;0.20;;;29.80;46.20;;;;;;5021709;28;20903;-68
2021/05/18 13:33:14;;;;;;;0.98;0.10;;;30.10;46.90;;;;;;5028268;28;20717;-70
2021/05/18 13:35:40;;;;;;;0.10;0.10;;;30.40;46.00;;;;;;5028385;28;20279;-71
2021/05/18 13:38:06;;;;;;;0.30;0.20;;;30.50;47.20;;;;;;5028740;28;20180;-71
2021/05/18 13:40:32;;;;;;;0.47;0.10;;;30.50;47.70;;;;;;5024145;28;20651;-72
2021/05/18 13:42:58;;;;;;;2.85;0.10;;;30.50;47.80;;;;;;5021628;28;20211;-72
2021/05/18 13:45:25;;;;;;;0.38;0.20;;;30.70;45.30;;;;;;5030363;28;20173;-72
2021/05/18 13:50:38;;;;;;;0.57;0.10;;;30.70;45.20;;;;;;5029686;28;20791;-71
2021/05/18 13:53:06;;;;;;;0.10;0.10;;;30.50;46.30;;;;;;5024859;28;20184;-72
2021/05/18 13:55:33;;;;;;;0.85;0.05;;;29.80;45.90;;;;;;5029659;28;20184;-71
2021/05/18 13:57:59;;;;;;;0.00;0.00;;;29.20;46.00;;;;;;5024235;28;20181;-73
2021/05/18 14:00:25;;;;;;;0.10;0.10;;;28.80;47.00;;;;;;5026201;28;20176;-71
2021/05/18 14:02:51;;;;;;;1.65;0.10;;;28.10;47.20;;;;;;5028634;28;20184;-72
2021/05/18 14:05:19;;;;;;;0.77;0.10;;;27.70;49.40;;;;;;5028182;28;20693;-71
2021/05/18 14:10:44;;;;;;;0.68;0.10;;;28.00;45.80;;;;;;5029745;28;20181;-72
2021/05/18 14:13:10;;;;;;;0.20;0.20;;;27.90;47.90;;;;;;5030004;28;20196;-71
2021/05/18 14:15:35;;;;;;;0.43;0.13;;;27.80;47.80;;;;;;5029848;28;20207;-71
2021/05/18 14:18:01;;;;;;;0.10;0.10;;;27.80;48.90;;;;;;5025506;28;20650;-71
2021/05/18 14:20:39;;;;;;;0.10;0.10;;;27.80;46.70;;;;;;5028261;28;20931;-70
2021/05/18 14:23:25;;;;;;;0.10;0.10;;;27.80;46.70;;;;;;5022722;28;20323;-72
2021/05/18 14:25:58;;;;;;;0.15;0.10;;;27.80;46.80;;;;;;5020073;28;20212;-71
2021/05/18 14:28:24;;;;;;;0.10;0.10;;;27.60;48.30;;;;;;5018349;28;20190;-72
2021/05/18 14:30:55;;;;;;;0.17;0.15;;;27.70;47.90;;;;;;5029692;28;20172;-72
2021/05/18 14:33:26;;;;;;;0.55;0.20;;;27.80;47.20;;;;;;5027918;28;20202;-72
2021/05/18 14:35:55;;;;;;;1.65;0.08;;;27.70;47.70;;;;;;5029746;28;20263;-70
2021/05/18 14:38:25;;;;;;;1.35;0.30;;;27.60;47.20;;;;;;5027005;28;20273;-73
2021/05/18 14:42:52;;;;;;;1.58;0.20;;;27.40;48.30;;;;;;5029840;28;20177;-72
2021/05/18 14:44:17;;;;;;;0.45;0.10;;;27.40;48.30;;;;;;5022850;28;20271;-71
2021/05/18 14:55:11;;;;;;;1.25;0.10;;;27.40;47.90;;;;;;5029757;28;20186;-71
2021/05/18 14:57:37;;;;;;;0.95;0.20;;;27.40;48.50;;;;;;5026881;28;20971;-71
2021/05/18 15:00:05;;;;;;;0.10;0.10;;;27.40;47.70;;;;;;5028887;28;20242;-72
2021/05/18 15:02:31;;;;;;;1.95;0.15;;;27.60;49.60;;;;;;5025117;28;20189;-72
2021/05/18 15:05:09;;;;;;;1.08;0.20;;;27.70;48.80;;;;;;5020338;28;20670;-71
2021/05/18 15:07:40;;;;;;;0.10;0.10;;;27.70;46.70;;;;;;5021986;28;20212;-71
2021/05/18 15:10:10;;;;;;;0.10;0.10;;;27.70;48.30;;;;;;5019611;28;20658;-72
2021/05/18 15:12:36;;;;;;;0.25;0.13;;;27.50;45.30;;;;;;5026238;28;20207;-72
2021/05/18 15:15:02;;;;;;;0.13;0.13;;;27.30;47.70;;;;;;5023549;28;20180;-71
2021/05/18 15:17:33;;;;;;;0.20;0.13;;;27.40;48.40;;;;;;5028184;28;20210;-72
2021/05/18 15:20:00;;;;;;;0.10;0.10;;;27.50;48.80;;;;;;5028792;28;20360;-71
2021/05/18 15:22:27;;;;;;;0.10;0.10;;;27.40;48.00;;;;;;5027415;28;20800;-71
2021/05/18 15:24:54;;;;;;;1.45;0.28;;;27.40;48.20;;;;;;5028761;28;20181;-72
2021/05/18 15:27:26;;;;;;;0.10;0.10;;;27.30;46.40;;;;;;5028285;28;20215;-72
2021/05/18 15:29:53;;;;;;;2.65;0.20;;;27.00;46.80;;;;;;5022463;28;20323;-71
2021/05/18 15:32:19;;;;;;;0.10;0.10;;;26.90;46.60;;;;;;5027979;28;20172;-71
2021/05/18 15:34:45;;;;;;;3.10;0.20;;;26.80;47.50;;;;;;5026484;28;20199;-70
2021/05/18 15:37:11;;;;;;;0.63;0.10;;;26.80;47.50;;;;;;5023675;28;20188;-71
2021/05/18 15:39:37;;;;;;;0.40;0.30;;;26.60;47.80;;;;;;5022632;28;20677;-70
2021/05/18 15:42:04;;;;;;;0.15;0.15;;;26.60;47.20;;;;;;5015113;28;20192;-73
2021/05/18 15:44:29;;;;;;;1.23;0.20;;;26.50;47.60;;;;;;5027418;28;20172;-75
2021/05/18 15:46:55;;;;;;;0.10;0.10;;;26.30;47.30;;;;;;5034744;28;20219;-73
2021/05/18 15:49:22;;;;;;;0.10;0.10;;;26.00;47.70;;;;;;5034642;28;20188;-72
2021/05/18 15:51:47;;;;;;;0.10;0.10;;;25.90;47.80;;;;;;5036826;28;20238;-72
2021/05/18 15:54:16;;;;;;;0.25;0.20;;;25.80;48.80;;;;;;5037017;28;20207;-74
2021/05/18 15:56:42;;;;;;;3.60;0.10;;;25.70;48.00;;;;;;5034489;28;20193;-70
2021/05/18 15:59:07;;;;;;;0.15;0.15;;;25.70;48.90;;;;;;5035809;28;20269;-69
2021/05/18 16:01:33;;;;;;;0.10;0.10;;;25.50;48.80;;;;;;5033436;28;20246;-71
2021/05/18 16:03:59;;;;;;;0.10;0.10;;;25.30;49.20;;;;;;5034607;28;20197;-73
2021/05/18 16:06:25;;;;;;;2.00;0.20;;;25.20;50.50;;;;;;5035062;28;20220;-71
2021/05/18 16:11:16;;;;;;;0.20;0.20;;;25.00;49.80;;;;;;5021470;28;20227;-72
2021/05/18 16:13:42;;;;;;;0.22;0.20;;;25.00;50.30;;;;;;5026171;28;20192;-72
2021/05/18 16:16:10;;;;;;;0.10;0.10;;;24.90;50.50;;;;;;5024086;28;20196;-72
2021/05/18 16:18:41;;;;;;;3.13;0.20;;;24.70;50.50;;;;;;5026382;28;20197;-70
2021/05/18 16:21:07;;;;;;;0.47;0.20;;;24.60;51.90;;;;;;5026818;28;20625;-70
2021/05/18 16:23:36;;;;;;;0.10;0.10;;;24.40;52.10;;;;;;5023105;28;20192;-70
2021/05/18 16:26:04;;;;;;;0.10;0.10;;;24.20;51.00;;;;;;5026342;28;20212;-69
2021/05/18 16:28:29;;;;;;;0.47;0.20;;;24.00;51.40;;;;;;5022739;28;20188;-71
2021/05/18 16:30:57;;;;;;;0.30;0.30;;;23.80;52.30;;;;;;5016212;28;20191;-71
2021/05/18 16:33:23;;;;;;;0.28;0.28;;;23.50;52.10;;;;;;5025347;28;20188;-71
2021/05/18 16:35:49;;;;;;;0.93;0.15;;;23.30;53.90;;;;;;5025530;28;20698;-71
2021/05/18 16:38:15;;;;;;;0.10;0.10;;;23.10;53.70;;;;;;5018993;28;20263;-72
2021/05/18 16:40:41;;;;;;;3.05;0.20;;;22.90;53.10;;;;;;5020190;28;20268;-71
2021/05/18 16:43:07;;;;;;;0.20;0.20;;;22.70;54.40;;;;;;5025383;28;20616;-69
2021/05/18 16:45:34;;;;;;;0.47;0.20;;;22.50;53.40;;;;;;5024651;28;20176;-70
2021/05/18 16:48:01;;;;;;;1.08;0.30;;;22.30;54.40;;;;;;5022827;28;20188;-72
2021/05/18 16:50:27;;;;;;;0.55;0.40;;;22.10;55.30;;;;;;5026296;28;20190;-71
2021/05/18 16:52:53;;;;;;;0.32;0.30;;;21.90;56.70;;;;;;5020090;28;20189;-72
2021/05/18 16:55:19;;;;;;;0.32;0.20;;;21.70;55.80;;;;;;5019765;28;20669;-71
2021/05/18 16:57:44;;;;;;;0.28;0.25;;;21.50;56.50;;;;;;5016989;28;20214;-71
2021/05/18 17:00:12;;;;;;;1.15;0.20;;;21.30;56.40;;;;;;5023104;28;20930;-71
2021/05/18 17:02:38;;;;;;;0.30;0.30;;;21.10;57.70;;;;;;5024981;28;20263;-72
2021/05/18 17:05:07;;;;;;;5.30;0.40;;;20.90;57.70;;;;;;5026688;28;20369;-72
2021/05/18 17:07:33;;;;;;;0.15;0.13;;;20.70;58.50;;;;;;5026536;28;20208;-72
2021/05/18 17:09:58;;;;;;;0.38;0.20;;;20.50;58.60;;;;;;5023320;28;20250;-72
2021/05/18 17:12:24;;;;;;;0.30;0.30;;;20.40;58.50;;;;;;5025190;28;20188;-72
2021/05/18 17:14:50;;;;;;;4.95;0.50;;;20.20;58.80;;;;;;5027439;28;20561;-71
2021/05/18 17:17:16;;;;;;;0.95;0.45;;;20.00;59.60;;;;;;5027096;28;20195;-72
2021/05/18 17:19:44;;;;;;;0.68;0.28;;;19.90;59.70;;;;;;5022720;28;20192;-72
2021/05/18 17:22:11;;;;;;;0.30;0.30;;;19.70;59.70;;;;;;5021904;28;20181;-72
2021/05/18 17:24:37;;;;;;;1.10;0.30;;;19.50;59.70;;;;;;5025962;28;20249;-69
2021/05/18 17:27:04;;;;;;;0.75;0.50;;;19.40;60.40;;;;;;5024904;28;20223;-69
2021/05/18 17:29:31;;;;;;;0.77;0.30;;;19.30;61.20;;;;;;5019844;28;20208;-68
2021/05/18 17:31:58;;;;;;;0.40;0.30;;;19.20;61.00;;;;;;5015268;28;20180;-69
2021/05/18 17:34:26;;;;;;;0.30;0.30;;;19.00;60.90;;;;;;5026410;28;20203;-68
2021/05/18 17:36:52;;;;;;;3.25;0.40;;;18.90;61.50;;;;;;5013110;28;20650;-67
2021/05/18 17:39:24;;;;;;;1.95;0.57;;;18.80;61.90;;;;;;5023973;28;20927;-70
2021/05/18 17:41:50;;;;;;;0.40;0.40;;;18.60;61.50;;;;;;5026852;28;20188;-69
2021/05/18 17:44:16;;;;;;;0.68;0.40;;;18.50;61.60;;;;;;5024001;28;20565;-71
2021/05/18 17:46:42;;;;;;;0.22;0.22;;;18.40;61.70;;;;;;5026755;28;20204;-73
2021/05/18 17:49:08;;;;;;;0.55;0.55;;;18.30;62.00;;;;;;5024989;28;20215;-70
2021/05/18 17:51:34;;;;;;;0.70;0.50;;;18.20;62.40;;;;;;5016308;28;20176;-71
2021/05/18 17:54:02;;;;;;;4.38;0.70;;;18.10;62.60;;;;;;5027324;28;20208;-71